Time;durP1;ratioP1;P1;durP2;ratioP2;P2;SDS_P1;SDS_P2;PMS_P1;PMS_P2;Temp;Humidity;BMP_temperature;BMP_pressure;BME280_temperature;BME280_humidity;BME280_pressure;Samples;Min_cycle;Max_cycle;Signal;HPM_P1;HPM_P2
2021/08/06 00:00:36;;;;;;;8.38;5.95;;;;;;;14.75;73.27;99356.09;10227663;29;20225;-73
2021/08/06 00:05:39;;;;;;;10.52;5.85;;;;;;;14.66;73.83;99366.09;10226727;29;20622;-74
2021/08/06 00:10:43;;;;;;;8.95;6.45;;;;;;;14.61;74.28;99365.78;10227903;29;20205;-74
2021/08/06 00:15:45;;;;;;;9.23;6.30;;;;;;;14.53;74.51;99355.00;10226586;29;20647;-74
2021/08/06 00:20:48;;;;;;;9.30;6.45;;;;;;;14.46;74.82;99344.06;10227490;29;20225;-74
2021/08/06 00:25:52;;;;;;;10.07;6.40;;;;;;;14.46;74.55;99349.47;10226444;29;20643;-74
2021/08/06 00:30:55;;;;;;;10.20;7.20;;;;;;;14.47;74.30;99342.19;10226637;29;20218;-73
2021/08/06 00:35:58;;;;;;;9.57;6.18;;;;;;;14.48;74.13;99344.75;10209027;29;20232;-74
2021/08/06 00:41:05;;;;;;;7.68;5.72;;;;;;;14.43;73.98;99335.47;10207828;29;20732;-73
2021/08/06 00:46:13;;;;;;;7.93;5.93;;;;;;;14.38;74.27;99338.66;10209057;29;20292;-73
2021/08/06 00:51:16;;;;;;;9.45;6.63;;;;;;;14.30;74.43;99331.41;10226554;29;20213;-73
2021/08/06 00:56:25;;;;;;;10.10;6.10;;;;;;;14.26;74.98;99327.41;10208352;29;20284;-73
2021/08/06 01:01:36;;;;;;;8.10;5.63;;;;;;;14.18;74.98;99322.03;10337992;23;20288;-77
2021/08/06 01:06:51;;;;;;;11.88;6.47;;;;;;;14.14;75.12;99323.38;10345282;28;20275;-76
2021/08/06 01:12:06;;;;;;;10.23;6.13;;;;;;;14.06;75.63;99323.38;10345660;28;20224;-75
2021/08/06 01:17:16;;;;;;;10.50;6.78;;;;;;;14.04;75.63;99328.09;10345075;28;20314;-76
2021/08/06 01:22:25;;;;;;;11.88;7.55;;;;;;;14.00;75.90;99324.09;10345269;28;20626;-76
2021/08/06 01:27:32;;;;;;;11.57;6.78;;;;;;;13.93;75.81;99322.09;10344583;28;20207;-75
2021/08/06 01:32:36;;;;;;;12.48;6.32;;;;;;;13.82;75.83;99330.53;10345035;28;20206;-77
2021/08/06 01:37:41;;;;;;;14.05;7.18;;;;;;;13.79;76.08;99322.75;10344215;28;20219;-76
2021/08/06 01:42:50;;;;;;;9.75;6.80;;;;;;;13.74;76.53;99318.88;10344677;28;20227;-76
2021/08/06 01:47:55;;;;;;;10.20;6.35;;;;;;;13.74;76.49;99314.34;10346211;28;20222;-76
2021/08/06 01:53:14;;;;;;;9.63;6.03;;;;;;;13.71;76.54;99310.13;10348116;28;20195;-75
2021/08/06 01:58:25;;;;;;;13.15;6.15;;;;;;;13.68;76.68;99305.06;10351031;28;20297;-76
2021/08/06 02:03:33;;;;;;;9.00;6.20;;;;;;;13.61;76.77;99300.53;10351717;28;20529;-76
2021/08/06 02:08:53;;;;;;;9.82;6.75;;;;;;;13.59;76.88;99298.00;10350779;28;20632;-75
2021/08/06 02:14:04;;;;;;;9.23;5.75;;;;;;;13.60;76.76;99290.75;10350850;28;20207;-76
2021/08/06 02:19:09;;;;;;;9.55;6.10;;;;;;;13.55;76.96;99293.97;10350911;28;20784;-76
2021/08/06 02:24:14;;;;;;;9.43;6.93;;;;;;;13.54;77.01;99294.13;10351050;28;20295;-76
2021/08/06 02:29:22;;;;;;;10.20;6.82;;;;;;;13.47;77.26;99283.19;10351427;28;20219;-77
2021/08/06 02:34:27;;;;;;;10.85;6.68;;;;;;;13.48;77.28;99277.59;10350319;28;20203;-75
2021/08/06 02:39:31;;;;;;;10.43;7.00;;;;;;;13.54;77.16;99277.94;10350010;28;20282;-76
2021/08/06 02:44:37;;;;;;;15.80;6.72;;;;;;;13.56;76.98;99268.66;10351057;28;20206;-77
2021/08/06 02:49:40;;;;;;;11.30;6.18;;;;;;;13.60;77.12;99275.41;10349844;28;20773;-76
2021/08/06 02:54:43;;;;;;;9.02;6.18;;;;;;;13.63;76.95;99269.69;10349398;28;20219;-76
2021/08/06 02:59:47;;;;;;;10.50;7.32;;;;;;;13.64;76.77;99270.50;10349255;28;20317;-77
2021/08/06 03:04:50;;;;;;;9.02;6.20;;;;;;;13.57;76.69;99264.09;10348172;28;20231;-77
2021/08/06 03:09:55;;;;;;;9.07;5.57;;;;;;;13.43;77.22;99263.78;10349263;28;20310;-76
2021/08/06 03:15:02;;;;;;;9.80;6.40;;;;;;;13.44;77.26;99254.69;10348770;28;20207;-77
2021/08/06 03:20:09;;;;;;;8.40;6.05;;;;;;;13.44;77.35;99251.16;10348688;28;20235;-77
2021/08/06 03:25:13;;;;;;;9.43;7.20;;;;;;;13.45;77.29;99255.53;10348417;28;20290;-76
2021/08/06 03:30:17;;;;;;;10.73;6.68;;;;;;;13.46;77.33;99247.25;10349670;28;20754;-77
2021/08/06 03:35:20;;;;;;;9.23;6.28;;;;;;;13.54;77.10;99248.25;10347845;28;20270;-76
2021/08/06 03:40:24;;;;;;;9.77;6.97;;;;;;;13.60;77.27;99252.97;10348152;28;20314;-76
2021/08/06 03:45:28;;;;;;;12.00;7.07;;;;;;;13.66;76.74;99247.75;10347718;28;20246;-76
2021/08/06 03:50:34;;;;;;;9.68;7.22;;;;;;;13.66;76.95;99249.59;10347825;28;20725;-76
2021/08/06 03:55:38;;;;;;;11.45;6.80;;;;;;;13.65;77.08;99240.66;10348342;28;20203;-77
2021/08/06 04:00:43;;;;;;;10.25;6.93;;;;;;;13.68;77.18;99234.06;10347924;28;20707;-76
2021/08/06 04:05:48;;;;;;;10.25;7.25;;;;;;;13.67;77.24;99235.09;10347687;28;20208;-76
2021/08/06 04:10:53;;;;;;;9.30;6.93;;;;;;;13.77;76.88;99248.38;10347217;28;20261;-75
2021/08/06 04:15:57;;;;;;;11.23;7.07;;;;;;;13.83;76.72;99239.59;10347802;28;20675;-75
2021/08/06 04:21:00;;;;;;;10.82;7.10;;;;;;;13.88;76.81;99235.38;10346337;28;20620;-76
2021/08/06 04:26:03;;;;;;;13.55;7.03;;;;;;;13.96;76.62;99241.75;10346339;28;20614;-76
2021/08/06 04:31:08;;;;;;;11.48;7.15;;;;;;;14.02;76.42;99231.09;10346617;28;20227;-76
2021/08/06 04:36:11;;;;;;;10.52;7.43;;;;;;;14.19;76.22;99231.03;10348122;28;20548;-76
2021/08/06 04:41:14;;;;;;;12.85;7.13;;;;;;;14.30;75.95;99228.78;10346724;28;20234;-75
2021/08/06 04:46:18;;;;;;;11.25;7.78;;;;;;;14.40;75.41;99235.84;10346618;28;20223;-76
2021/08/06 04:51:21;;;;;;;11.18;6.53;;;;;;;14.52;75.07;99237.97;10346488;28;20258;-77
2021/08/06 04:56:25;;;;;;;10.77;7.10;;;;;;;14.44;75.34;99237.19;10346328;28;20298;-76
2021/08/06 05:01:32;;;;;;;10.77;8.18;;;;;;;14.49;75.16;99230.22;10345942;28;20230;-76
2021/08/06 05:06:35;;;;;;;12.50;7.40;;;;;;;14.58;74.83;99236.41;10346448;28;20203;-75
2021/08/06 05:11:38;;;;;;;13.63;8.55;;;;;;;14.46;75.32;99222.47;10346426;28;20269;-76
2021/08/06 05:16:42;;;;;;;12.98;8.20;;;;;;;14.56;75.57;99220.41;10346723;28;20191;-76
2021/08/06 05:21:45;;;;;;;13.23;8.88;;;;;;;14.67;75.28;99221.00;10345602;28;20227;-76
2021/08/06 05:26:48;;;;;;;14.43;8.48;;;;;;;14.75;75.21;99227.19;10345225;28;20201;-76
2021/08/06 05:31:53;;;;;;;13.32;7.93;;;;;;;14.70;75.46;99221.50;10345448;28;20269;-76
2021/08/06 05:36:56;;;;;;;10.15;6.72;;;;;;;14.87;75.20;99221.38;10345251;28;20269;-76
2021/08/06 05:41:59;;;;;;;12.73;8.48;;;;;;;14.96;74.65;99217.59;10345277;28;20285;-76
2021/08/06 05:47:04;;;;;;;12.75;8.13;;;;;;;14.88;75.23;99209.53;10346289;28;20188;-75
2021/08/06 05:52:07;;;;;;;6.80;5.18;;;;;;;14.87;75.43;99208.69;10344892;28;20211;-76
2021/08/06 05:57:11;;;;;;;11.60;8.32;;;;;;;14.78;75.57;99215.16;10344180;28;20225;-75
2021/08/06 06:02:16;;;;;;;13.95;9.23;;;;;;;14.69;76.13;99218.97;10344591;28;20231;-76
2021/08/06 06:07:44;;;;;;;13.95;9.38;;;;;;;14.77;76.25;99217.03;10344120;28;20207;-76
2021/08/06 06:12:49;;;;;;;18.00;10.07;;;;;;;14.96;75.92;99223.00;10344232;28;20710;-76
2021/08/06 06:17:54;;;;;;;14.10;9.60;;;;;;;15.12;75.24;99224.72;10344051;28;20219;-75
2021/08/06 06:22:57;;;;;;;15.20;9.45;;;;;;;15.70;74.18;99215.91;10344071;28;20259;-75
2021/08/06 06:28:03;;;;;;;14.60;9.35;;;;;;;16.45;71.79;99215.84;10344836;28;20707;-75
2021/08/06 06:33:25;;;;;;;12.38;8.82;;;;;;;16.26;71.17;99220.00;10344123;28;20193;-75
2021/08/06 06:38:28;;;;;;;12.98;8.88;;;;;;;16.17;72.13;99215.69;10344287;28;20234;-75
2021/08/06 06:43:33;;;;;;;13.20;9.38;;;;;;;16.01;71.98;99217.56;10350242;28;20281;-75
2021/08/06 06:48:37;;;;;;;14.23;8.93;;;;;;;16.10;71.86;99212.91;10349706;28;20223;-76
2021/08/06 06:53:45;;;;;;;12.75;8.52;;;;;;;15.91;72.56;99217.88;10350518;28;20203;-75
2021/08/06 06:58:49;;;;;;;13.90;9.23;;;;;;;16.26;71.89;99214.56;10361865;23;20229;-74
2021/08/06 07:03:56;;;;;;;12.82;8.13;;;;;;;17.10;70.09;99222.97;10247218;28;20662;-74
2021/08/06 07:08:59;;;;;;;11.52;8.10;;;;;;;17.47;67.98;99219.16;10285825;28;20231;-75
2021/08/06 07:14:05;;;;;;;10.52;7.30;;;;;;;17.43;67.71;99209.72;10269162;28;20203;-74
2021/08/06 07:19:10;;;;;;;11.02;7.32;;;;;;;17.40;68.42;99210.13;10268574;28;20263;-74
2021/08/06 07:24:13;;;;;;;10.18;6.60;;;;;;;17.85;67.40;99221.50;10269766;28;20309;-74
2021/08/06 07:29:16;;;;;;;8.48;5.47;;;;;;;18.04;65.26;99217.22;10270082;28;20209;-75
2021/08/06 07:34:20;;;;;;;6.25;5.35;;;;;;;18.54;64.42;99219.72;10268321;28;20390;-74
2021/08/06 07:39:23;;;;;;;6.30;5.00;;;;;;;19.07;63.52;99219.06;10268137;28;20324;-74
2021/08/06 07:44:27;;;;;;;5.93;4.93;;;;;;;19.82;60.99;99223.19;10268878;28;20228;-74
2021/08/06 07:49:31;;;;;;;5.40;4.25;;;;;;;20.28;59.41;99219.50;10267346;28;20225;-75
2021/08/06 07:54:34;;;;;;;7.53;4.75;;;;;;;20.37;59.52;99224.75;10267157;28;20200;-74
2021/08/06 07:59:38;;;;;;;4.43;4.00;;;;;;;19.89;60.17;99229.50;10267184;28;20228;-75
2021/08/06 08:04:43;;;;;;;4.50;3.95;;;;;;;19.54;61.56;99228.88;10268249;28;20689;-74
2021/08/06 08:09:45;;;;;;;4.75;3.33;;;;;;;19.52;60.88;99228.25;10268540;28;20585;-75
2021/08/06 08:14:49;;;;;;;4.65;3.22;;;;;;;19.31;61.81;99234.75;10266614;28;20197;-74
2021/08/06 08:19:54;;;;;;;5.47;3.10;;;;;;;18.95;62.90;99232.41;10266875;28;20336;-74
2021/08/06 08:24:57;;;;;;;3.33;3.03;;;;;;;18.70;62.88;99229.41;10266347;28;20621;-74
2021/08/06 08:30:04;;;;;;;4.47;3.13;;;;;;;18.48;63.78;99228.72;10266512;28;20613;-74
2021/08/06 08:35:09;;;;;;;4.03;3.22;;;;;;;19.08;62.02;99226.16;10267359;28;20289;-74
2021/08/06 08:40:13;;;;;;;5.28;3.20;;;;;;;18.99;62.63;99226.34;10267231;28;20291;-74
2021/08/06 08:45:16;;;;;;;3.92;2.83;;;;;;;18.75;65.10;99249.50;10265336;28;20307;-74
2021/08/06 08:50:20;;;;;;;4.50;3.40;;;;;;;17.64;73.78;99244.13;10266207;28;20291;-74
2021/08/06 08:55:24;;;;;;;4.53;4.13;;;;;;;16.68;78.13;99243.66;10266804;28;20201;-75
2021/08/06 09:00:28;;;;;;;6.75;4.25;;;;;;;17.20;78.49;99241.69;10266318;28;20239;-75
2021/08/06 09:05:35;;;;;;;6.82;4.80;;;;;;;17.79;77.32;99240.47;10264945;28;20315;-75
2021/08/06 09:10:41;;;;;;;5.57;4.95;;;;;;;17.92;73.84;99227.78;10265453;28;20326;-74
2021/08/06 09:16:01;;;;;;;4.45;3.90;;;;;;;17.40;74.54;99245.41;10265333;28;20209;-75
2021/08/06 09:21:22;;;;;;;4.28;3.88;;;;;;;16.46;79.77;99250.06;10266402;28;20231;-74
2021/08/06 09:26:41;;;;;;;4.72;3.92;;;;;;;16.30;82.04;99254.66;10265918;28;20216;-74
2021/08/06 09:31:55;;;;;;;5.72;4.07;;;;;;;16.41;83.27;99247.09;10266118;28;20213;-74
2021/08/06 09:37:03;;;;;;;3.53;3.10;;;;;;;16.32;82.52;99257.19;10266311;28;20224;-74
2021/08/06 09:42:15;;;;;;;4.55;3.50;;;;;;;16.36;82.78;99262.03;10264868;28;20224;-74
2021/08/06 09:47:21;;;;;;;4.07;3.67;;;;;;;16.06;84.50;99253.06;10265761;28;20551;-74
2021/08/06 09:52:36;;;;;;;3.97;3.47;;;;;;;16.08;84.67;99251.00;10266281;28;20219;-74
2021/08/06 09:57:56;;;;;;;3.65;3.17;;;;;;;15.98;85.46;99253.16;10266248;28;20288;-73
2021/08/06 10:02:59;;;;;;;3.40;3.10;;;;;;;15.97;86.30;99254.19;10265743;28;20228;-73
2021/08/06 10:08:04;;;;;;;3.03;2.72;;;;;;;16.17;86.29;99253.63;10265252;28;20223;-73
2021/08/06 10:13:06;;;;;;;3.58;2.15;;;;;;;16.07;85.69;99249.34;10267352;28;20260;-72
2021/08/06 10:18:12;;;;;;;2.85;2.20;;;;;;;15.85;86.52;99244.84;10270833;28;20223;-72
2021/08/06 10:23:16;;;;;;;3.03;2.03;;;;;;;16.10;86.10;99235.41;10271997;28;20205;-72
2021/08/06 10:28:20;;;;;;;3.10;2.20;;;;;;;15.90;86.13;99245.13;10271169;28;20551;-72
2021/08/06 10:33:25;;;;;;;2.38;2.17;;;;;;;15.99;86.21;99244.00;10271550;28;20658;-71
2021/08/06 10:38:36;;;;;;;3.88;2.78;;;;;;;15.96;87.03;99238.94;10270935;28;20622;-72
2021/08/06 10:43:44;;;;;;;4.60;2.95;;;;;;;16.26;86.42;99234.38;10271602;28;20232;-72
2021/08/06 10:48:50;;;;;;;5.80;3.97;;;;;;;16.69;86.53;99234.47;10269644;28;20225;-72
2021/08/06 10:54:26;;;;;;;5.28;3.33;;;;;;;17.21;84.04;99235.22;10271104;28;20197;-71
2021/08/06 10:59:38;;;;;;;3.92;3.20;;;;;;;17.60;80.96;99226.53;10271060;28;20259;-72
2021/08/06 11:04:46;;;;;;;3.28;2.85;;;;;;;17.79;80.08;99233.16;10275558;28;20224;-72
2021/08/06 11:10:28;;;;;;;3.53;2.95;;;;;;;17.92;80.16;99216.94;10270966;28;20283;-72
2021/08/06 11:16:01;;;;;;;3.80;3.40;;;;;;;18.00;80.37;99217.84;10269883;28;20196;-71
2021/08/06 11:21:04;;;;;;;5.25;3.95;;;;;;;18.26;79.35;99223.38;10269486;28;20251;-72
2021/08/06 11:26:08;;;;;;;4.60;3.97;;;;;;;18.45;79.11;99213.63;10269469;28;20689;-71
2021/08/06 11:31:18;;;;;;;4.95;3.60;;;;;;;18.66;78.13;99211.81;10270124;28;20251;-71
2021/08/06 11:36:21;;;;;;;5.90;3.47;;;;;;;18.92;75.54;99211.88;10269659;28;20199;-71
2021/08/06 11:41:25;;;;;;;4.80;4.28;;;;;;;19.12;77.82;99205.66;10272566;28;20825;-72
2021/08/06 11:46:28;;;;;;;4.95;3.55;;;;;;;19.89;74.95;99212.31;10272262;28;20220;-72
2021/08/06 11:51:31;;;;;;;5.80;4.63;;;;;;;19.57;73.25;99198.53;10269509;28;20637;-73
2021/08/06 11:56:35;;;;;;;5.07;4.13;;;;;;;19.20;74.80;99203.56;10269260;28;20216;-73
2021/08/06 12:01:38;;;;;;;4.93;4.43;;;;;;;19.66;74.19;99202.72;10269219;28;20231;-72
2021/08/06 12:06:44;;;;;;;5.63;4.90;;;;;;;19.27;74.84;99209.00;10267149;28;20232;-72
2021/08/06 12:11:49;;;;;;;6.35;4.70;;;;;;;19.49;71.61;99196.00;10269331;28;20224;-72
2021/08/06 12:16:51;;;;;;;6.60;4.78;;;;;;;18.68;74.25;99217.91;10268070;28;20208;-72
2021/08/06 12:21:54;;;;;;;5.07;4.55;;;;;;;18.03;76.94;99212.84;10268212;28;20722;-72
2021/08/06 12:26:59;;;;;;;5.57;4.97;;;;;;;17.42;79.63;99232.47;10267774;28;20216;-72
2021/08/06 12:32:05;;;;;;;6.25;5.50;;;;;;;16.76;83.51;99226.44;10268291;28;20220;-73
2021/08/06 12:37:10;;;;;;;7.28;4.90;;;;;;;16.69;85.78;99225.50;10267896;28;20207;-73
2021/08/06 12:42:17;;;;;;;5.50;4.47;;;;;;;16.97;84.93;99231.81;10267711;28;20216;-73
2021/08/06 12:47:20;;;;;;;6.18;4.35;;;;;;;17.14;83.70;99242.44;10267351;28;20248;-73
2021/08/06 12:52:24;;;;;;;4.72;3.17;;;;;;;19.16;79.96;99234.94;10266988;28;20215;-73
2021/08/06 12:57:44;;;;;;;6.30;1.98;;;;;;;19.72;74.27;99232.88;10266767;28;20193;-74
2021/08/06 13:03:06;;;;;;;3.08;2.50;;;;;;;18.92;77.06;99230.94;10295396;23;20231;-73
2021/08/06 13:08:13;;;;;;;4.18;3.13;;;;;;;19.18;76.40;99234.75;10306960;28;20207;-73
2021/08/06 13:13:17;;;;;;;5.32;4.32;;;;;;;19.07;75.22;99228.03;10307116;28;20496;-73
2021/08/06 13:18:21;;;;;;;5.60;4.68;;;;;;;19.44;77.07;99232.03;10306242;28;20192;-73
2021/08/06 13:23:23;;;;;;;7.25;5.70;;;;;;;19.51;75.50;99223.84;10306401;28;20216;-73
2021/08/06 13:28:29;;;;;;;7.85;5.90;;;;;;;18.71;75.46;99242.81;10306106;28;20266;-73
2021/08/06 13:33:33;;;;;;;7.57;6.22;;;;;;;18.27;77.81;99240.56;10306955;28;20180;-73
2021/08/06 13:38:36;;;;;;;7.80;5.97;;;;;;;18.08;78.51;99239.41;10304953;28;20216;-73
2021/08/06 13:43:40;;;;;;;7.53;6.68;;;;;;;17.98;81.19;99239.78;10320062;28;20220;-73
2021/08/06 13:48:43;;;;;;;9.75;6.90;;;;;;;17.81;84.22;99232.97;10307697;28;20239;-73
2021/08/06 13:53:46;;;;;;;7.90;6.40;;;;;;;17.88;81.59;99242.84;10312431;28;20191;-73
2021/08/06 13:58:50;;;;;;;6.85;5.50;;;;;;;17.99;80.54;99240.59;10311418;28;20708;-73
2021/08/06 14:03:53;;;;;;;7.10;5.20;;;;;;;18.23;79.47;99248.25;10312085;28;20220;-73
2021/08/06 14:08:56;;;;;;;6.63;5.13;;;;;;;18.49;78.39;99252.16;10311453;28;20215;-73
2021/08/06 14:14:00;;;;;;;4.68;3.72;;;;;;;18.05;78.69;99253.41;10311268;28;20665;-71
2021/08/06 14:19:03;;;;;;;5.53;4.43;;;;;;;18.06;80.24;99255.91;10311434;28;20270;-71
2021/08/06 14:24:06;;;;;;;6.35;3.90;;;;;;;18.69;79.74;99260.38;10309768;28;20255;-71
2021/08/06 14:29:10;;;;;;;8.70;4.30;;;;;;;19.75;77.07;99281.50;10311107;28;20212;-72
2021/08/06 14:34:13;;;;;;;5.03;3.42;;;;;;;19.36;75.97;99270.38;10310647;28;20189;-73
2021/08/06 14:39:17;;;;;;;5.05;3.05;;;;;;;20.43;75.88;99262.06;10310737;28;20680;-73
2021/08/06 14:44:21;;;;;;;5.10;3.08;;;;;;;21.93;66.90;99262.31;10310134;28;20215;-73
2021/08/06 14:49:24;;;;;;;4.10;2.88;;;;;;;20.85;70.07;99260.59;10325302;28;20224;-73
2021/08/06 14:54:42;;;;;;;2.88;2.35;;;;;;;19.50;65.02;99267.63;10309997;28;20196;-73
2021/08/06 14:59:46;;;;;;;3.58;2.60;;;;;;;18.95;67.18;99268.63;10308653;28;20224;-73
2021/08/06 15:04:49;;;;;;;3.75;2.97;;;;;;;18.92;69.86;99262.75;10309604;28;20216;-73
2021/08/06 15:09:52;;;;;;;4.78;2.90;;;;;;;19.70;70.11;99259.50;10308303;28;20228;-73
2021/08/06 15:14:56;;;;;;;3.20;2.35;;;;;;;21.23;62.26;99262.50;10309307;28;20263;-73
2021/08/06 15:19:59;;;;;;;2.88;2.40;;;;;;;21.52;63.30;99254.69;10309722;28;20212;-74
2021/08/06 15:25:03;;;;;;;2.85;2.33;;;;;;;22.33;63.04;99259.16;10309020;28;20258;-73
2021/08/06 15:30:09;;;;;;;2.63;1.85;;;;;;;21.44;61.00;99267.56;10309545;28;20708;-73
2021/08/06 15:35:12;;;;;;;2.70;2.00;;;;;;;22.23;58.05;99275.25;10308285;28;20192;-74
2021/08/06 15:40:15;;;;;;;3.35;1.95;;;;;;;21.99;59.07;99271.50;10309390;28;20271;-74
2021/08/06 15:45:19;;;;;;;2.92;1.70;;;;;;;21.21;57.96;99280.97;10309191;28;20274;-74
2021/08/06 15:50:23;;;;;;;3.13;1.77;;;;;;;20.95;60.60;99279.22;10308456;28;20227;-74
2021/08/06 15:55:29;;;;;;;2.75;1.90;;;;;;;22.02;61.30;99282.84;10307678;28;20192;-74
2021/08/06 16:00:34;;;;;;;2.40;1.75;;;;;;;22.86;53.01;99282.28;10307914;28;20223;-74
2021/08/06 16:05:37;;;;;;;4.38;2.33;;;;;;;21.73;57.32;99303.47;10307255;28;20220;-74
2021/08/06 16:10:40;;;;;;;2.63;2.17;;;;;;;21.40;56.53;99274.53;10307173;28;20624;-75
2021/08/06 16:15:44;;;;;;;2.53;1.98;;;;;;;21.52;55.97;99266.44;10306540;28;20192;-73
2021/08/06 16:20:48;;;;;;;2.40;2.10;;;;;;;22.20;55.65;99273.81;10307322;28;20216;-74
2021/08/06 16:25:51;;;;;;;2.83;2.40;;;;;;;21.31;58.38;99258.63;10307187;28;20219;-73
2021/08/06 16:30:55;;;;;;;3.25;2.33;;;;;;;19.17;65.04;99273.88;10306948;28;20215;-74
2021/08/06 16:35:59;;;;;;;2.75;2.55;;;;;;;18.73;67.78;99275.22;10306427;28;20232;-73
2021/08/06 16:41:03;;;;;;;4.72;3.17;;;;;;;18.71;68.19;99282.78;10306115;28;20263;-73
2021/08/06 16:46:07;;;;;;;5.13;3.65;;;;;;;18.98;68.06;99278.28;10305151;28;20326;-74
2021/08/06 16:51:11;;;;;;;3.30;3.00;;;;;;;18.79;68.75;99283.44;10305650;28;20299;-74
2021/08/06 16:56:14;;;;;;;4.88;3.67;;;;;;;18.55;69.82;99290.22;10305145;28;20188;-73
2021/08/06 17:01:21;;;;;;;4.18;2.80;;;;;;;18.68;70.95;99280.47;10305374;28;20236;-72
2021/08/06 17:06:24;;;;;;;4.20;3.22;;;;;;;21.53;65.25;99265.41;10303575;28;20228;-73
2021/08/06 17:11:26;;;;;;;4.38;3.70;;;;;;;23.54;56.62;99262.75;10305739;28;20300;-73
2021/08/06 17:16:31;;;;;;;4.18;3.58;;;;;;;20.44;62.90;99258.28;10304836;28;20192;-72
2021/08/06 17:21:35;;;;;;;4.28;3.38;;;;;;;19.96;67.29;99272.22;10304468;28;20215;-73
2021/08/06 17:26:38;;;;;;;3.38;2.78;;;;;;;21.36;61.40;99267.81;10304666;28;20224;-73
2021/08/06 17:31:43;;;;;;;5.78;2.78;;;;;;;22.41;57.06;99264.31;10304777;28;20282;-73
2021/08/06 17:36:47;;;;;;;4.03;2.88;;;;;;;20.91;60.85;99278.00;10304672;28;20193;-75
2021/08/06 17:41:49;;;;;;;4.22;3.33;;;;;;;20.60;62.59;99274.16;10305162;28;20220;-75
2021/08/06 17:46:54;;;;;;;4.65;2.92;;;;;;;20.54;64.59;99270.41;10304760;28;20219;-74
2021/08/06 17:51:56;;;;;;;3.75;3.10;;;;;;;20.45;64.07;99273.59;10305252;28;20270;-75
2021/08/06 17:56:59;;;;;;;4.18;3.08;;;;;;;21.78;59.17;99281.81;10304278;28;20630;-75
2021/08/06 18:02:06;;;;;;;4.57;2.78;;;;;;;21.51;60.22;99281.19;10304445;28;20231;-75
2021/08/06 18:07:09;;;;;;;4.85;2.90;;;;;;;19.83;63.39;99298.47;10303446;28;20281;-75
2021/08/06 18:12:12;;;;;;;3.70;2.90;;;;;;;19.17;66.13;99301.97;10303702;28;20616;-74
2021/08/06 18:17:16;;;;;;;3.60;2.72;;;;;;;18.84;64.99;99292.88;10302610;28;20192;-74
2021/08/06 18:22:18;;;;;;;2.75;2.17;;;;;;;18.57;63.70;99298.19;10303388;28;20258;-74
2021/08/06 18:27:21;;;;;;;3.72;2.40;;;;;;;18.48;63.13;99313.00;10302624;28;20650;-74
2021/08/06 18:32:25;;;;;;;2.70;2.17;;;;;;;18.41;62.48;99306.69;10302521;28;20216;-74
2021/08/06 18:37:29;;;;;;;4.40;2.30;;;;;;;18.36;62.19;99308.13;10309744;28;20196;-74
2021/08/06 18:42:32;;;;;;;2.60;1.83;;;;;;;18.30;61.90;99325.25;10325446;28;20358;-74
2021/08/06 18:47:36;;;;;;;2.95;2.03;;;;;;;18.19;61.44;99323.09;10309727;28;20627;-74
2021/08/06 18:52:39;;;;;;;3.88;2.40;;;;;;;18.13;61.72;99326.63;10309918;28;20286;-74
2021/08/06 18:57:42;;;;;;;2.33;2.13;;;;;;;18.14;62.20;99331.84;10310371;28;20268;-74
2021/08/06 19:02:46;;;;;;;3.95;2.22;;;;;;;17.97;62.50;99329.59;10319728;23;20637;-76
2021/08/06 19:07:49;;;;;;;3.30;2.10;;;;;;;18.01;62.68;99355.34;10270534;28;20235;-75
2021/08/06 19:12:53;;;;;;;2.42;2.13;;;;;;;17.97;63.74;99356.78;10270877;28;20213;-75
2021/08/06 19:17:57;;;;;;;3.15;2.50;;;;;;;17.82;65.11;99362.28;10270273;28;20247;-76
2021/08/06 19:23:00;;;;;;;2.67;2.25;;;;;;;17.43;69.38;99359.00;10270659;28;20228;-76
2021/08/06 19:28:04;;;;;;;3.22;2.38;;;;;;;17.20;71.37;99359.19;10269721;28;20212;-75
2021/08/06 19:33:13;;;;;;;2.55;2.35;;;;;;;17.17;70.84;99365.03;10270146;28;20619;-75
2021/08/06 19:38:17;;;;;;;3.88;2.40;;;;;;;17.27;71.01;99374.72;10269618;28;20244;-76
2021/08/06 19:43:19;;;;;;;3.17;2.40;;;;;;;17.25;70.54;99374.88;10270125;28;20197;-75
2021/08/06 19:48:24;;;;;;;3.38;2.63;;;;;;;17.20;68.69;99366.50;10268436;28;20264;-75
2021/08/06 19:53:26;;;;;;;2.60;2.40;;;;;;;17.11;68.70;99365.72;10269685;28;20247;-75
2021/08/06 19:58:29;;;;;;;4.60;2.60;;;;;;;17.10;68.60;99371.38;10268900;28;20200;-75
2021/08/06 20:03:34;;;;;;;6.90;2.65;;;;;;;17.23;67.85;99374.25;10268318;28;20200;-75
2021/08/06 20:08:37;;;;;;;3.00;2.70;;;;;;;17.23;67.73;99380.53;10268982;28;20229;-75
2021/08/06 20:13:40;;;;;;;3.35;2.40;;;;;;;17.31;67.31;99382.28;10268863;28;20197;-75
2021/08/06 20:18:44;;;;;;;3.03;2.50;;;;;;;17.43;66.60;99380.72;10269171;28;20251;-75
2021/08/06 20:23:47;;;;;;;2.95;2.55;;;;;;;17.52;66.03;99388.75;10269389;28;20203;-75
2021/08/06 20:28:50;;;;;;;3.35;2.60;;;;;;;17.38;66.47;99396.75;10268773;28;20267;-75
2021/08/06 20:33:54;;;;;;;4.93;2.80;;;;;;;16.98;69.77;99396.28;10269171;28;20681;-76
2021/08/06 20:38:57;;;;;;;4.45;3.20;;;;;;;16.79;73.32;99384.16;10268264;28;20205;-75
2021/08/06 20:44:00;;;;;;;6.03;2.80;;;;;;;16.64;76.47;99388.72;10268687;28;20196;-76
2021/08/06 20:49:05;;;;;;;2.97;2.67;;;;;;;16.45;77.49;99397.44;10268124;28;20291;-75
2021/08/06 20:54:07;;;;;;;7.30;4.15;;;;;;;16.34;78.83;99402.28;10267405;28;20255;-75
2021/08/06 20:59:10;;;;;;;4.30;3.53;;;;;;;16.41;78.86;99402.41;10266800;28;20228;-75
2021/08/06 21:04:15;;;;;;;5.40;3.53;;;;;;;16.42;79.40;99395.94;10267718;28;20197;-75
2021/08/06 21:09:17;;;;;;;3.95;3.45;;;;;;;16.28;79.45;99404.91;10267185;28;20268;-75
2021/08/06 21:14:20;;;;;;;3.55;3.25;;;;;;;16.18;79.70;99407.84;10266600;28;20205;-76
2021/08/06 21:19:24;;;;;;;3.85;3.20;;;;;;;16.11;80.17;99405.03;10267168;28;20592;-75
2021/08/06 21:24:27;;;;;;;4.72;3.45;;;;;;;16.13;80.42;99416.53;10266610;28;20208;-75
2021/08/06 21:29:30;;;;;;;5.40;3.70;;;;;;;16.10;80.11;99413.34;10266725;28;20224;-74
2021/08/06 21:34:34;;;;;;;4.60;3.60;;;;;;;16.06;80.10;99410.16;10266032;28;20192;-74
2021/08/06 21:39:38;;;;;;;3.72;3.42;;;;;;;16.02;79.94;99416.13;10266403;28;20208;-74
2021/08/06 21:44:41;;;;;;;4.57;3.67;;;;;;;15.97;80.25;99415.84;10265974;28;20559;-74
2021/08/06 21:49:45;;;;;;;4.55;3.97;;;;;;;15.88;79.91;99409.66;10266191;28;20677;-74
2021/08/06 21:54:48;;;;;;;7.15;4.00;;;;;;;15.77;79.78;99408.22;10266927;28;20279;-74
2021/08/06 21:59:51;;;;;;;7.15;4.15;;;;;;;15.75;79.16;99402.16;10265809;28;20274;-75
2021/08/06 22:04:55;;;;;;;5.75;4.40;;;;;;;15.68;79.50;99406.59;10265012;28;20231;-74
2021/08/06 22:09:58;;;;;;;4.07;3.67;;;;;;;15.58;79.20;99406.00;10268526;28;20228;-74
2021/08/06 22:15:01;;;;;;;5.25;4.13;;;;;;;15.53;79.40;99397.59;10270716;28;20197;-74
2021/08/06 22:20:06;;;;;;;4.45;3.50;;;;;;;15.56;79.15;99398.06;10272265;28;20262;-74
2021/08/06 22:25:11;;;;;;;4.20;3.80;;;;;;;15.57;77.78;99396.19;10271975;28;20185;-75
2021/08/06 22:30:14;;;;;;;6.57;4.20;;;;;;;15.60;77.27;99403.94;10271864;28;20625;-75
2021/08/06 22:35:18;;;;;;;5.40;3.47;;;;;;;15.59;76.20;99403.09;10271607;28;20224;-75
2021/08/06 22:40:21;;;;;;;6.05;3.50;;;;;;;15.63;76.08;99392.75;10271647;28;20289;-76
2021/08/06 22:45:24;;;;;;;6.82;3.90;;;;;;;15.61;75.37;99392.13;10271838;28;20197;-75
2021/08/06 22:50:28;;;;;;;4.32;3.58;;;;;;;15.60;74.74;99401.25;10273925;28;20324;-75
2021/08/06 22:55:31;;;;;;;4.00;2.88;;;;;;;15.55;74.97;99406.34;10272687;28;20658;-75
2021/08/06 23:00:35;;;;;;;5.45;3.35;;;;;;;15.56;74.38;99408.06;10272119;28;20294;-75
2021/08/06 23:05:39;;;;;;;4.18;3.00;;;;;;;15.53;74.04;99413.81;10270704;28;20205;-74
2021/08/06 23:10:42;;;;;;;2.90;2.67;;;;;;;15.52;73.67;99423.78;10270726;28;20213;-74
2021/08/06 23:15:45;;;;;;;4.25;3.13;;;;;;;15.57;73.48;99426.78;10270340;28;20192;-75
2021/08/06 23:20:50;;;;;;;3.42;2.60;;;;;;;15.54;72.96;99434.44;10269675;28;20220;-75
2021/08/06 23:25:52;;;;;;;4.05;2.85;;;;;;;15.52;73.07;99425.66;10269733;28;20250;-75
2021/08/06 23:30:55;;;;;;;4.80;3.25;;;;;;;15.45;73.33;99422.84;10270003;28;20217;-74
2021/08/06 23:35:59;;;;;;;5.35;3.35;;;;;;;15.44;72.91;99421.13;10269485;28;20221;-75